This is the latest recevied weather packets stored in our database for station/object SP1BMW-13. If no packets are shown the sender has not sent any weather packets the latest 10 day(s).
| Time | Temp. | Humidity | Pressure | Rain* | Wind** | Luminosity | Snow |
|---|---|---|---|---|---|---|---|
| 1787910557 | 22.22° C | 54% | 1009.5 hPa | 0 mm | 0.45 m/s, 70° | 291 W/m² | - |
| 1787910498 | 22.22° C | 54% | 1009.3 hPa | 0 mm | 3.58 m/s, 60° | 296 W/m² | - |
| 1787910437 | 22.22° C | 55% | 1009.3 hPa | 0 mm | 1.79 m/s, 34° | 293 W/m² | - |
| 1787910378 | 22.22° C | 54% | 1009.3 hPa | 0 mm | 1.34 m/s, 71° | 301 W/m² | - |
| 1787910318 | 22.22° C | 54% | 1009.1 hPa | 0 mm | 0.45 m/s, 210° | 291 W/m² | - |
| 1787910258 | 22.22° C | 55% | 1009.2 hPa | 0 mm | 0.45 m/s, 61° | 285 W/m² | - |
| 1787910198 | 22.22° C | 54% | 1009.1 hPa | 0 mm | 0.89 m/s, 5° | 284 W/m² | - |
| 1787910138 | 22.22° C | 55% | 1009.1 hPa | 0 mm | 2.24 m/s, 354° | 338 W/m² | - |
| 1787910078 | 22.22° C | 54% | 1009.2 hPa | 0 mm | 0.45 m/s, 54° | 341 W/m² | - |
| 1787910017 | 22.22° C | 54% | 1009.4 hPa | 0 mm | 1.34 m/s, 143° | 377 W/m² | - |
| 1787909957 | 22.22° C | 54% | 1009.2 hPa | 0 mm | 1.79 m/s, 153° | 311 W/m² | - |
| 1787909898 | 22.22° C | 54% | 1009.3 hPa | 0 mm | 1.79 m/s, 61° | 357 W/m² | - |
| 1787909837 | 22.22° C | 54% | 1009.3 hPa | 0 mm | 0.89 m/s, 56° | 358 W/m² | - |
| 1787909777 | 22.22° C | 55% | 1009.6 hPa | 0 mm | 1.34 m/s, 36° | 383 W/m² | - |
| 1787909717 | 22.22° C | 55% | 1009.7 hPa | 0 mm | 1.34 m/s, 130° | 421 W/m² | - |
| 1787909658 | 22.22° C | 54% | 1009.6 hPa | 0 mm | 4.02 m/s, 37° | 420 W/m² | - |
| 1787909597 | 21.67° C | 56% | 1009.6 hPa | 0 mm | 0.89 m/s, 7° | 429 W/m² | - |
| 1787909537 | 21.67° C | 55% | 1009.7 hPa | 0 mm | 0.89 m/s, 113° | 420 W/m² | - |
| 1787909478 | 21.67° C | 55% | 1009.8 hPa | 0 mm | 1.79 m/s, 47° | 446 W/m² | - |
| 1787909417 | 21.67° C | 55% | 1009.8 hPa | 0 mm | 2.24 m/s, 93° | 409 W/m² | - |
| 1787909358 | 21.67° C | 57% | 1009.9 hPa | 0 mm | 0.45 m/s, 65° | 415 W/m² | - |
| 1787909299 | 21.67° C | 56% | 1009.8 hPa | 0 mm | 1.34 m/s, 49° | 442 W/m² | - |
| 1787909238 | 21.67° C | 55% | 1009.8 hPa | 0 mm | 1.34 m/s, 51° | 385 W/m² | - |
| 1787909178 | 21.67° C | 55% | 1009.7 hPa | 0 mm | 1.79 m/s, 86° | 350 W/m² | - |
| 1787909118 | 21.67° C | 55% | 1010 hPa | 0 mm | 2.68 m/s, 43° | 406 W/m² | - |
* Rain latest hour (hover to see other rain measurements)
** Current wind speed in m/s (hover to see current wind gust speed)